createdAt,value
2019-05-23T00:01:25.989Z,27.07
2019-05-23T00:04:17.232Z,26.57
2019-05-23T00:06:47.364Z,23.77
2019-05-23T00:09:17.104Z,29.17
2019-05-23T00:11:49.253Z,24.33
2019-05-23T00:14:43.601Z,21.07
2019-05-23T00:17:18.677Z,22.13
2019-05-23T00:19:50.440Z,24.80
2019-05-23T00:22:20.244Z,23.87
2019-05-23T00:24:58.851Z,26.17
2019-05-23T00:27:29.777Z,22.03
2019-05-23T00:30:01.189Z,22.20
2019-05-23T00:32:57.095Z,18.20
2019-05-23T00:35:28.077Z,22.47
2019-05-23T00:37:57.249Z,20.00
2019-05-23T00:40:28.333Z,18.77
2019-05-23T00:43:07.025Z,21.77
2019-05-23T00:45:35.949Z,19.00
2019-05-23T00:48:06.147Z,19.50
2019-05-23T00:50:35.803Z,19.30
2019-05-23T00:53:14.934Z,21.37
2019-05-23T00:55:44.701Z,18.70
2019-05-23T00:58:14.970Z,20.73
2019-05-23T01:00:44.307Z,21.43
2019-05-23T01:06:21.206Z,20.53
2019-05-23T01:08:51.706Z,24.10
2019-05-23T01:11:21.504Z,29.03
2019-05-23T01:14:00.966Z,26.73
2019-05-23T01:16:31.521Z,24.23
2019-05-23T01:19:01.189Z,25.73
2019-05-23T01:21:47.470Z,25.83
2019-05-23T01:24:59.357Z,25.83
2019-05-23T01:27:30.065Z,24.50
2019-05-23T01:29:59.578Z,24.97
2019-05-23T01:32:48.628Z,23.53
2019-05-23T01:35:31.567Z,25.87
2019-05-23T01:38:04.171Z,22.50
2019-05-23T01:40:36.064Z,21.30
2019-05-23T01:43:05.502Z,23.93
2019-05-23T01:45:56.393Z,23.53
2019-05-23T01:48:25.402Z,23.90
2019-05-23T01:50:54.524Z,21.17
2019-05-23T01:53:57.766Z,23.77
2019-05-23T01:56:27.182Z,24.47
2019-05-23T01:58:56.471Z,23.33
2019-05-23T02:01:25.490Z,26.17
2019-05-23T02:06:41.594Z,27.07
2019-05-23T02:09:12.258Z,34.23
2019-05-23T02:11:41.889Z,27.97
2019-05-23T02:14:24.705Z,30.40
2019-05-23T02:16:58.129Z,26.20
2019-05-23T02:19:28.036Z,29.33
2019-05-23T02:21:57.483Z,27.97
2019-05-23T02:27:14.861Z,26.77
2019-05-23T02:29:44.654Z,26.43
2019-05-23T02:32:15.071Z,32.43
2019-05-23T02:34:56.785Z,28.53
2019-05-23T02:37:55.197Z,31.37
2019-05-23T02:40:40.867Z,27.90
2019-05-23T02:43:14.629Z,32.90
2019-05-23T02:45:47.739Z,30.20
2019-05-23T02:48:21.734Z,27.37
2019-05-23T02:50:55.534Z,27.33
2019-05-23T02:53:29.368Z,22.43
2019-05-23T02:56:11.894Z,21.30
2019-05-23T02:59:19.128Z,24.17
2019-05-23T03:02:18.580Z,27.60
2019-05-23T03:04:58.740Z,24.83
2019-05-23T03:10:09.209Z,32.70
2019-05-23T03:12:38.941Z,29.97
2019-05-23T03:15:19.322Z,26.90
2019-05-23T03:17:52.633Z,26.63
2019-05-23T03:20:21.876Z,30.50
2019-05-23T03:23:02.002Z,25.77
2019-05-23T03:26:19.859Z,28.60
2019-05-23T03:28:49.447Z,28.10
2019-05-23T03:31:32.433Z,25.37
2019-05-23T03:34:01.470Z,34.57
2019-05-23T03:36:40.705Z,35.13
2019-05-23T03:39:11.345Z,33.73
2019-05-23T03:41:42.459Z,26.77
2019-05-23T03:44:26.811Z,32.60
2019-05-23T03:46:57.085Z,34.23
2019-05-23T03:49:28.116Z,29.63
2019-05-23T03:52:08.175Z,30.20
2019-05-23T03:54:37.271Z,27.83
2019-05-23T03:57:09.309Z,26.63
2019-05-23T03:59:40.373Z,27.57
2019-05-23T04:02:20.743Z,31.03
2019-05-23T04:04:50.608Z,31.20
2019-05-23T04:07:21.351Z,29.00
2019-05-23T04:09:50.302Z,32.67
2019-05-23T04:12:29.022Z,30.37
2019-05-23T04:14:58.071Z,42.93
2019-05-23T04:17:27.129Z,43.60
2019-05-23T04:19:56.483Z,28.07
2019-05-23T04:22:34.368Z,30.47
2019-05-23T04:25:04.442Z,19.13
2019-05-23T04:27:33.626Z,20.63
2019-05-23T04:30:06.749Z,17.93
2019-05-23T04:35:20.053Z,20.17
2019-05-23T04:37:57.112Z,19.17
2019-05-23T04:40:27.983Z,19.03
2019-05-23T04:43:06.097Z,22.87
2019-05-23T04:45:36.615Z,22.10
2019-05-23T04:48:06.142Z,17.83
2019-05-23T04:50:36.354Z,17.73
2019-05-23T04:53:17.682Z,19.03
2019-05-23T04:55:47.338Z,18.10
2019-05-23T04:58:17.496Z,20.07
2019-05-23T05:00:46.673Z,18.13
2019-05-23T05:03:27.674Z,21.87
2019-05-23T05:05:56.821Z,21.37
2019-05-23T05:08:28.859Z,21.13
2019-05-23T05:10:59.055Z,21.87
2019-05-23T05:13:36.927Z,25.83
2019-05-23T05:16:06.112Z,23.03
2019-05-23T05:18:36.265Z,24.80
2019-05-23T05:21:05.496Z,25.90
2019-05-23T05:23:43.331Z,25.13
2019-05-23T05:26:18.941Z,28.10
2019-05-23T05:28:49.779Z,25.27
2019-05-23T05:31:20.883Z,24.67
2019-05-23T05:36:34.893Z,26.07
2019-05-23T05:39:12.790Z,25.77
2019-05-23T05:41:49.693Z,25.17
2019-05-23T05:45:08.041Z,22.00
2019-05-23T05:48:50.481Z,23.27
2019-05-23T05:54:20.166Z,27.23
2019-05-23T05:56:49.093Z,27.13
2019-05-23T05:59:18.402Z,21.10
2019-05-23T06:02:11.086Z,19.93
2019-05-23T06:04:49.220Z,26.03
2019-05-23T06:07:33.289Z,26.00
2019-05-23T06:10:04.863Z,27.47
2019-05-23T06:12:34.427Z,24.80
2019-05-23T06:15:12.375Z,22.47
2019-05-23T06:17:41.548Z,27.63
2019-05-23T06:20:14.135Z,25.33
2019-05-23T06:22:44.006Z,22.07
2019-05-23T06:25:22.500Z,25.93
2019-05-23T06:27:51.621Z,21.87
2019-05-23T06:30:22.419Z,22.27
2019-05-23T06:32:52.088Z,25.47
2019-05-23T06:38:07.586Z,21.23
2019-05-23T06:40:37.731Z,22.00
2019-05-23T06:43:09.980Z,25.10
2019-05-23T06:45:48.743Z,23.07
2019-05-23T06:48:18.024Z,22.03
2019-05-23T06:50:47.180Z,22.53
2019-05-23T06:53:16.431Z,22.67
2019-05-23T18:19:09.320Z,3.77
2019-05-23T18:21:38.356Z,5.27
2019-05-23T18:24:08.972Z,3.70
2019-05-23T18:29:22.069Z,3.90
2019-05-23T18:31:52.039Z,3.83
2019-05-23T18:34:22.323Z,4.17
2019-05-23T18:37:01.785Z,5.80
2019-05-23T18:39:32.471Z,4.40
2019-05-23T18:42:01.651Z,4.73
2019-05-23T18:44:30.625Z,4.00
2019-05-23T18:47:14.575Z,7.53
2019-05-23T18:49:44.282Z,4.60
2019-05-23T18:52:13.584Z,4.87
2019-05-23T18:54:45.391Z,4.47
2019-05-23T18:57:25.771Z,5.33
2019-05-23T18:59:55.002Z,3.90
2019-05-23T19:02:25.701Z,3.60
2019-05-23T19:04:57.277Z,4.60
2019-05-23T19:07:35.700Z,5.13
2019-05-23T19:10:06.444Z,6.53
2019-05-23T19:12:35.833Z,3.47
2019-05-23T19:15:05.529Z,8.90
2019-05-23T19:17:43.489Z,4.13
2019-05-23T19:20:16.898Z,4.90
2019-05-23T19:22:46.581Z,4.10
2019-05-23T19:25:18.106Z,5.43
2019-05-23T19:27:59.297Z,5.73
2019-05-23T19:30:28.683Z,5.93
2019-05-23T19:32:59.198Z,4.27
2019-05-23T19:35:28.648Z,4.77
2019-05-23T19:38:06.775Z,5.07
2019-05-23T19:40:36.554Z,5.47
2019-05-23T19:43:06.708Z,5.30
2019-05-23T19:45:36.527Z,8.83
2019-05-23T19:48:20.122Z,5.53
2019-05-23T19:50:51.756Z,4.73
2019-05-23T19:53:21.409Z,5.23
2019-05-23T19:55:54.450Z,4.07
2019-05-23T19:58:35.016Z,4.93
2019-05-23T20:01:05.297Z,5.43
2019-05-23T20:03:36.543Z,8.83
2019-05-23T20:06:10.921Z,6.83
2019-05-23T20:08:49.853Z,4.40
2019-05-23T20:11:19.461Z,3.37
2019-05-23T20:13:51.794Z,4.87
2019-05-23T20:16:20.862Z,5.40
2019-05-23T20:18:59.539Z,3.83
2019-05-23T20:21:28.910Z,3.77
2019-05-23T20:23:59.785Z,5.13
2019-05-23T20:26:28.788Z,4.40
2019-05-23T20:31:49.729Z,4.73
2019-05-23T20:34:19.573Z,4.53
2019-05-23T20:36:51.316Z,4.07
2019-05-23T20:39:30.319Z,5.00
2019-05-23T20:42:10.980Z,3.70
2019-05-23T20:44:30.889Z,3.63
2019-05-23T20:47:00.456Z,3.57
2019-05-23T20:49:39.003Z,4.23
2019-05-23T20:52:09.098Z,10.70
2019-05-23T20:54:38.060Z,5.57
2019-05-23T20:57:07.439Z,4.30
2019-05-23T20:59:46.575Z,4.77
2019-05-23T21:02:15.871Z,3.47
2019-05-23T21:04:44.950Z,4.53
2019-05-23T21:07:14.645Z,4.23
2019-05-23T21:09:52.615Z,4.87
2019-05-23T21:12:30.196Z,6.13
2019-05-23T21:14:52.928Z,5.33
2019-05-23T21:17:21.816Z,5.17
2019-05-23T21:20:00.029Z,6.57
2019-05-23T21:22:29.385Z,8.10
2019-05-23T21:25:00.661Z,6.80
2019-05-23T21:27:29.972Z,5.53
2019-05-23T21:30:08.536Z,5.87
2019-05-23T21:32:38.835Z,6.40
2019-05-23T21:35:08.698Z,5.93
2019-05-23T21:37:37.718Z,6.00
2019-05-23T21:40:19.172Z,8.10
2019-05-23T21:42:49.263Z,6.20
2019-05-23T21:45:21.169Z,6.83
2019-05-23T21:47:50.167Z,7.77
2019-05-23T21:50:31.382Z,6.30
2019-05-23T21:53:00.760Z,6.70
2019-05-23T21:55:36.728Z,7.47
2019-05-23T21:58:06.106Z,7.13
2019-05-23T22:04:27.564Z,6.73
2019-05-23T22:07:04.198Z,6.70
2019-05-23T22:09:42.375Z,8.33
2019-05-23T22:12:15.136Z,7.83
2019-05-23T22:14:44.255Z,6.03
2019-05-23T22:17:13.507Z,7.53
2019-05-23T22:19:43.564Z,7.67
2019-05-23T22:22:13.002Z,6.67
2019-05-23T22:24:44.976Z,7.27
2019-05-23T22:27:14.351Z,10.50
2019-05-23T22:29:52.445Z,7.63
2019-05-23T22:32:23.076Z,8.90
2019-05-23T22:34:59.106Z,8.10
2019-05-23T22:37:29.692Z,7.83
2019-05-23T22:40:08.196Z,10.03
2019-05-23T22:42:37.507Z,8.17
2019-05-23T22:45:11.427Z,10.37
2019-05-23T22:47:40.363Z,9.87
2019-05-23T22:50:21.983Z,7.83
2019-05-23T22:52:50.866Z,7.83
2019-05-23T22:55:20.146Z,8.80
2019-05-23T22:57:49.365Z,10.33
2019-05-23T23:00:33.716Z,8.73
2019-05-23T23:03:03.468Z,8.87
2019-05-23T23:05:32.770Z,10.10
2019-05-23T23:08:01.996Z,8.30
2019-05-23T23:10:52.461Z,8.47
2019-05-23T23:13:37.708Z,8.70
2019-05-23T23:15:52.825Z,14.23
2019-05-23T23:18:22.004Z,9.30
2019-05-23T23:20:59.793Z,10.03
2019-05-23T23:23:28.758Z,10.53
2019-05-23T23:25:57.848Z,10.60
2019-05-23T23:28:26.831Z,9.83
2019-05-23T23:33:40.081Z,10.23
2019-05-23T23:36:08.958Z,13.27
2019-05-23T23:38:37.869Z,12.93
2019-05-23T23:41:15.917Z,10.30
2019-05-23T23:43:58.826Z,11.53
2019-05-23T23:46:33.884Z,11.83
2019-05-23T23:49:20.529Z,10.77
2019-05-23T23:52:16.221Z,9.77
2019-05-23T23:55:06.009Z,10.63
2019-05-23T23:57:52.873Z,11.63
